aviador You're here:

KCKV Decoded Metar

CLARKSVILLE in TN, USA
Report Time2017-08-22 00:52:00
UTC Time2017-08-22 01:42:33
Flight Rules vfr VFR
WindCalm
Visibility9999 m
Phenomena:N/A
Clouds:N/A
Expected CloudBase > 1,600 ft AGL from Temp-Dew spread
CeilingNone
Temp27°C (ISA +13)
Dew Point23°C (79% RH)
Heat Index29.6°C
QNH1019 hPa
Density Alt2,218 ft
Elevation541 ft
Report Wrong Elevation
Raw Report
KCKV 220052Z AUTO 00000KT 10SM CLR 27/23 A3009 RMK AO2 SLP181
T02720228=

Extra information for KCKV:More info

Metar Taf Metar & Taf Last 4 Metars F.Rules Stats Wind Profile Meteogram Temp Stats Airport Information Weather charts Add Link Nearby VenuesMetar ALERT Operation Metar Decoded Social comments

AIRNAV info for KCKV